Historical Data

TheSutherlands

Weather at Humberside Airport

Current Weather from Humberside Airport

The information displayed on this page is from the METAR reports produced by Humberside Airport. Note that there are times when these are not generated.

Weather Report

Coded Weather Report: 2020/04/03 23:20 EGNJ 032320Z AUTO 19003KT 9999 NCD 05/02 Q1018

Report issued: 2020/04/03 at 23:20 UTC

Weather: Code: AUTO
Wind: light air from the south (190 degrees) at 3 knots (3 mph, 6 kph, Force 1)
Visibility: 10km or more
Weather: Code: NCD
Temperature: 5 C
Dewpoint: 2 C
Humidity: 81%
Pressure: 1018 hPa